Time;durP1;ratioP1;P1;durP2;ratioP2;P2;SDS_P1;SDS_P2;PMS_P1;PMS_P2;Temp;Humidity;BMP_temperature;BMP_pressure;BME280_temperature;BME280_humidity;BME280_pressure;Samples;Min_cycle;Max_cycle;Signal;HPM_P1;HPM_P2
2021/11/09 00:01:49;;;;;;;;;62.00;47.50;;;;;9.59;63.31;102218.66;6228453;22;45442;-87
2021/11/09 00:04:50;;;;;;;;;;;;;;;;;;;;;
2021/11/09 00:10:48;;;;;;;;;;;;;;;;;;;;;
2021/11/09 00:13:44;;;;;;;;;;;;;;;;;;;;;
2021/11/09 00:16:31;;;;;;;;;;;;;;;;;;;;;
2021/11/09 00:18:58;;;;;;;;;56.25;47.25;;;;;9.54;62.59;102215.00;6240245;22;74355;-88
2021/11/09 00:21:27;;;;;;;;;60.25;47.25;;;;;9.45;62.92;102197.28;6215180;22;45334;-88
2021/11/09 00:23:53;;;;;;;;;60.75;49.50;;;;;9.52;63.10;102206.22;6242632;22;45815;-88
2021/11/09 00:26:22;;;;;;;;;66.00;51.75;;;;;9.50;63.35;102209.69;6214629;22;45489;-87
2021/11/09 00:28:57;;;;;;;;;61.75;50.00;;;;;9.52;63.23;102217.63;6215569;22;46905;-87
2021/11/09 00:31:22;;;;;;;;;59.25;50.25;;;;;9.41;63.15;102201.59;6214156;22;45316;-87
2021/11/09 00:33:48;;;;;;;;;59.50;48.25;;;;;9.40;63.00;102196.28;6241551;22;45410;-87
2021/11/09 00:36:14;;;;;;;;;61.00;47.50;;;;;9.41;63.25;102205.94;6242255;22;45356;-86
2021/11/09 00:38:40;;;;;;;;;58.25;48.00;;;;;9.38;63.42;102206.78;6213392;22;46818;-87
2021/11/09 00:41:06;;;;;;;;;58.50;47.75;;;;;9.45;63.24;102221.81;6213699;22;45490;-86
2021/11/09 00:43:32;;;;;;;;;61.25;48.75;;;;;9.26;63.64;102186.31;6215137;22;45386;-87
2021/11/09 00:46:30;;;;;;;;;59.00;48.50;;;;;9.40;63.76;102204.16;6242774;22;45331;-88
2021/11/09 00:48:57;;;;;;;;;57.00;45.75;;;;;9.38;63.64;102208.50;6218276;22;47789;-88
2021/11/09 00:51:23;;;;;;;;;59.75;47.75;;;;;9.25;63.74;102186.28;6226389;22;45486;-92
2021/11/09 00:53:51;;;;;;;;;59.75;45.50;;;;;9.35;63.27;102206.66;6227087;22;44578;-91
2021/11/09 00:56:17;;;;;;;;;56.00;46.75;;;;;9.37;63.70;102206.72;6226876;22;45438;-92
2021/11/09 00:58:43;;;;;;;;;61.25;51.00;;;;;9.24;63.98;102190.63;6227024;22;46597;-93
2021/11/09 01:01:11;;;;;;;;;59.00;49.00;;;;;9.16;63.77;102183.41;6225360;22;45380;-93
2021/11/09 01:03:38;;;;;;;;;59.25;49.75;;;;;9.21;63.51;102193.19;6228080;22;45303;-92
2021/11/09 01:06:03;;;;;;;;;57.75;48.25;;;;;9.17;63.61;102193.97;6253449;22;45645;-92
2021/11/09 01:08:31;;;;;;;;;59.75;48.25;;;;;9.25;63.74;102216.09;6229107;22;46910;-92
2021/11/09 01:11:00;;;;;;;;;58.00;46.25;;;;;9.10;63.78;102185.91;6228876;22;45327;-92
2021/11/09 01:13:34;;;;;;;;;65.00;52.75;;;;;9.11;63.64;102195.53;6229894;22;45277;-92
2021/11/09 01:16:05;;;;;;;;;60.00;49.75;;;;;9.23;63.52;102223.03;6228846;22;44803;-91
2021/11/09 01:18:42;;;;;;;;;59.50;50.00;;;;;9.14;63.61;102204.41;6229195;22;47324;-93
2021/11/09 01:21:15;;;;;;;;;58.00;48.00;;;;;9.17;63.66;102216.75;6233372;22;45300;-91
2021/11/09 01:23:45;;;;;;;;;62.25;51.00;;;;;9.00;63.93;102196.16;6235190;22;45431;-92
2021/11/09 01:26:12;;;;;;;;;63.00;49.25;;;;;8.99;64.03;102210.16;6234133;22;45276;-92
2021/11/09 01:28:48;;;;;;;;;58.25;46.75;;;;;9.14;63.88;102237.66;6234338;22;46960;-93
2021/11/09 01:31:15;;;;;;;;;55.50;47.00;;;;;8.92;64.19;102207.31;6233957;22;45271;-92
2021/11/09 01:33:44;;;;;;;;;61.25;48.75;;;;;9.07;64.12;102243.63;6235135;22;44708;-92
2021/11/09 01:36:13;;;;;;;;;55.00;44.00;;;;;8.93;64.06;102217.88;6234664;22;44934;-92
2021/11/09 01:38:40;;;;;;;;;56.00;45.75;;;;;9.02;64.17;102232.97;6256410;22;47530;-93
2021/11/09 01:41:08;;;;;;;;;55.25;43.75;;;;;8.89;64.40;102216.00;6228044;22;45326;-92
2021/11/09 01:43:39;;;;;;;;;57.00;44.75;;;;;8.80;64.14;102203.53;6229080;22;45216;-92
2021/11/09 01:46:07;;;;;;;;;59.00;47.75;;;;;8.94;64.46;102224.91;6228553;22;44725;-90
2021/11/09 01:48:33;;;;;;;;;61.75;49.50;;;;;8.90;64.71;102230.94;6228607;22;47032;-92
2021/11/09 01:51:04;;;;;;;;;54.25;44.50;;;;;8.69;64.72;102210.22;6230771;22;45563;-92
2021/11/09 01:53:30;;;;;;;;;51.50;42.00;;;;;8.77;64.54;102221.81;6234069;22;44535;-90
2021/11/09 01:55:59;;;;;;;;;53.00;43.75;;;;;8.77;64.85;102226.19;6234236;22;45461;-93
2021/11/09 01:58:25;;;;;;;;;54.75;44.25;;;;;8.66;64.83;102207.50;6236106;22;46998;-92
2021/11/09 02:00:58;;;;;;;;;39.25;36.50;;;;;8.70;64.79;102206.72;6232940;22;45101;-92
2021/11/09 02:03:25;;;;;;;;;55.00;43.75;;;;;8.76;64.72;102219.13;6240777;22;44724;-92
2021/11/09 02:05:51;;;;;;;;;51.00;43.25;;;;;8.64;64.67;102206.56;6246946;22;44776;-91
2021/11/09 02:08:18;;;;;;;;;56.75;45.00;;;;;8.81;65.00;102236.78;6246696;22;47143;-90
2021/11/09 02:10:46;;;;;;;;;53.00;40.75;;;;;8.75;64.97;102220.88;6247049;22;44705;-91
2021/11/09 02:13:11;;;;;;;;;51.25;43.50;;;;;8.69;64.73;102223.34;6246312;22;44800;-92
2021/11/09 02:15:38;;;;;;;;;51.25;41.75;;;;;8.66;64.84;102212.75;6246681;22;44816;-92
2021/11/09 02:18:06;;;;;;;;;54.50;43.50;;;;;8.77;64.75;102229.69;6239646;22;47229;-92
2021/11/09 02:20:33;;;;;;;;;55.75;46.00;;;;;8.72;64.89;102219.91;6271351;22;45242;-92
2021/11/09 02:22:59;;;;;;;;;55.50;46.75;;;;;8.64;65.00;102219.69;6244776;22;45215;-91
2021/11/09 02:25:28;;;;;;;;;57.75;44.75;;;;;8.57;65.20;102208.13;6244171;22;44745;-92
2021/11/09 02:27:54;;;;;;;;;56.25;46.25;;;;;8.73;65.33;102240.94;6244634;22;46616;-92
2021/11/09 02:30:23;;;;;;;;;55.00;44.50;;;;;8.69;65.04;102225.97;6240172;22;45164;-90
2021/11/09 02:32:49;;;;;;;;;56.75;44.75;;;;;8.60;64.97;102218.69;6235343;22;45158;-90
2021/11/09 02:35:16;;;;;;;;;54.50;46.00;;;;;8.67;65.05;102240.78;6230323;22;45369;-93
2021/11/09 02:37:43;;;;;;;;;56.00;45.75;;;;;8.52;65.02;102220.22;6229703;22;48159;-92
2021/11/09 02:40:10;;;;;;;;;55.75;44.25;;;;;8.66;64.99;102248.59;6226661;22;45370;-93
2021/11/09 02:42:40;;;;;;;;;55.25;46.00;;;;;8.47;64.93;102227.06;6228436;22;45213;-92
2021/11/09 02:45:16;;;;;;;;;55.50;44.00;;;;;8.58;65.21;102253.63;6227877;22;45359;-94
2021/11/09 02:47:49;;;;;;;;;57.75;47.75;;;;;8.63;64.99;102262.53;6228603;22;46808;-93
2021/11/09 02:50:17;;;;;;;;;53.50;45.50;;;;;8.63;65.43;102257.28;6229100;22;45194;-93
2021/11/09 02:52:52;;;;;;;;;52.00;42.00;;;;;8.60;65.37;102252.81;6228572;22;45358;-92
2021/11/09 02:55:22;;;;;;;;;49.00;41.75;;;;;8.44;65.36;102223.47;6228279;22;45347;-94
2021/11/09 02:58:00;;;;;;;;;48.25;42.25;;;;;8.45;65.17;102222.66;6229076;22;47903;-95
2021/11/09 03:00:37;;;;;;;;;55.50;45.00;;;;;8.59;65.40;102258.06;6254573;22;45280;-93
2021/11/09 03:03:07;;;;;;;;;56.00;44.50;;;;;8.53;64.98;102247.38;6255363;22;45428;-93
2021/11/09 03:05:45;;;;;;;;;54.00;44.50;;;;;8.50;65.23;102236.78;6228568;22;45202;-91
2021/11/09 03:08:26;;;;;;;;;54.50;43.50;;;;;8.45;65.03;102227.91;6253209;22;46993;-94
2021/11/09 03:10:53;;;;;;;;;53.00;42.75;;;;;8.33;65.22;102210.00;6229384;22;45184;-93
2021/11/09 03:13:22;;;;;;;;;55.50;44.00;;;;;8.45;65.36;102236.66;6228682;22;45187;-93
2021/11/09 03:15:52;;;;;;;;;58.50;47.75;;;;;8.36;65.44;102217.97;6229311;22;45357;-92
2021/11/09 03:18:22;;;;;;;;;48.25;43.00;;;;;8.48;65.15;102251.59;6228156;22;47281;-92
2021/11/09 03:20:58;;;;;;;;;57.75;47.00;;;;;8.30;65.23;102216.06;6230040;22;45283;-94
2021/11/09 03:40:07;;;;;;;;;57.00;45.25;;;;;8.18;64.98;102216.59;6273160;22;45265;-92
2021/11/09 03:45:26;;;;;;;;;52.50;42.00;;;;;8.31;66.00;102241.47;6273084;22;44733;-91
2021/11/09 03:47:55;;;;;;;;;53.00;45.75;;;;;8.16;65.87;102214.78;6246849;22;44806;-91
2021/11/09 03:50:24;;;;;;;;;56.25;46.25;;;;;8.07;66.10;102206.63;6271899;22;47012;-91
2021/11/09 03:53:02;;;;;;;;;51.00;42.50;;;;;8.11;66.35;102216.38;6240725;22;44633;-91
2021/11/09 03:58:22;;;;;;;;;52.75;42.25;;;;;8.08;66.20;102218.91;6271187;22;44761;-93
2021/11/09 04:00:57;;;;;;;;;54.25;44.00;;;;;8.09;66.14;102221.56;6243758;22;46885;-92
2021/11/09 04:05:55;;;;;;;;;51.25;43.00;;;;;8.17;65.99;102227.03;6260199;22;45346;-92
2021/11/09 04:11:08;;;;;;;;;51.00;42.00;;;;;8.13;65.79;102230.44;6256501;22;45188;-92
2021/11/09 04:16:25;;;;;;;;;56.75;46.00;;;;;8.12;65.81;102236.50;6256990;22;45246;-92
2021/11/09 04:19:00;;;;;;;;;62.75;48.75;;;;;8.10;65.94;102225.06;6256246;22;45284;-93
2021/11/09 04:21:41;;;;;;;;;56.00;43.75;;;;;7.98;66.14;102211.59;6229118;22;46954;-93
2021/11/09 04:24:32;;;;;;;;;62.75;46.50;;;;;8.13;66.18;102240.91;6229693;22;45334;-93
2021/11/09 04:27:05;;;;;;;;;55.25;46.75;;;;;8.11;66.20;102239.97;6256109;22;44601;-93
2021/11/09 04:29:49;;;;;;;;;49.00;40.50;;;;;8.01;66.01;102220.44;6229599;22;44794;-91
2021/11/09 05:02:45;;;;;;;;;49.75;43.50;;;;;8.02;66.32;102245.84;6271041;22;44698;-91
2021/11/09 05:08:22;;;;;;;;;53.50;46.00;;;;;8.03;66.47;102252.84;6271773;22;44681;-92
2021/11/09 05:10:49;;;;;;;;;55.25;45.75;;;;;8.03;66.28;102254.59;6242736;22;44793;-92
2021/11/09 05:13:15;;;;;;;;;55.00;44.50;;;;;8.05;65.85;102264.28;6243308;22;45187;-92
2021/11/09 05:15:42;;;;;;;;;60.75;49.75;;;;;8.07;66.15;102278.34;6243670;22;46970;-93
2021/11/09 05:18:08;;;;;;;;;60.50;48.00;;;;;8.04;66.15;102282.59;6241676;22;45359;-93
2021/11/09 05:21:34;;;;;;;;;58.00;47.50;;;;;8.03;66.39;102278.19;6241997;22;44712;-92
2021/11/09 05:24:03;;;;;;;;;58.50;48.25;;;;;7.88;66.65;102257.59;6196335;22;45264;-92
2021/11/09 05:26:32;;;;;;;;;59.50;48.75;;;;;7.92;66.52;102265.63;6228953;22;46778;-92
2021/11/09 05:28:57;;;;;;;;;61.25;51.00;;;;;8.02;66.76;102289.50;6226929;22;45422;-92
2021/11/09 05:31:26;;;;;;;;;59.00;47.25;;;;;8.02;66.71;102293.03;6254527;22;45409;-92
2021/11/09 05:33:56;;;;;;;;;59.50;48.75;;;;;8.03;66.70;102289.56;6227548;22;45292;-92
2021/11/09 05:36:28;;;;;;;;;62.50;49.00;;;;;8.04;66.62;102293.06;6228314;22;46956;-94
2021/11/09 05:38:59;;;;;;;;;55.50;47.50;;;;;8.05;66.65;102293.13;6226862;22;45238;-93
2021/11/09 05:41:26;;;;;;;;;53.50;43.00;;;;;8.01;66.70;102279.88;6228106;22;45237;-93
2021/11/09 05:43:51;;;;;;;;;61.50;49.25;;;;;7.94;66.62;102265.69;6226774;22;45083;-92
2021/11/09 05:46:17;;;;;;;;;56.50;45.75;;;;;8.07;66.59;102290.53;6227234;22;47446;-92
2021/11/09 05:48:43;;;;;;;;;61.50;49.25;;;;;8.05;66.55;102292.25;6227816;22;44677;-92
2021/11/09 05:51:09;;;;;;;;;56.75;46.00;;;;;7.94;66.34;102277.06;6231160;22;45177;-91
2021/11/09 05:53:35;;;;;;;;;54.25;45.25;;;;;7.93;66.37;102279.63;6229788;22;45477;-92
2021/11/09 05:56:03;;;;;;;;;57.75;48.25;;;;;7.88;66.49;102273.34;6230307;22;46843;-91
2021/11/09 05:58:29;;;;;;;;;58.75;48.25;;;;;7.78;66.11;102264.31;6228476;22;45605;-92
2021/11/09 06:00:54;;;;;;;;;57.00;44.00;;;;;7.99;66.02;102311.28;6241926;22;44692;-90
2021/11/09 06:03:23;;;;;;;;;55.25;45.00;;;;;7.92;65.67;102298.84;6246111;22;45552;-91
2021/11/09 06:05:54;;;;;;;;;55.75;44.50;;;;;7.81;65.94;102293.25;6244425;22;47060;-90
2021/11/09 06:08:24;;;;;;;;;59.75;49.00;;;;;7.80;66.04;102301.03;6234608;22;45340;-92
2021/11/09 06:11:07;;;;;;;;;59.00;47.25;;;;;7.86;65.69;102314.38;6234121;22;45142;-90
2021/11/09 06:13:33;;;;;;;;;54.00;45.50;;;;;7.78;65.72;102318.44;6229924;22;45218;-90
2021/11/09 06:16:01;;;;;;;;;54.75;45.75;;;;;7.79;65.76;102320.25;6230368;22;46910;-89
2021/11/09 06:18:27;;;;;;;;;53.25;44.00;;;;;7.81;65.52;102332.56;6231410;22;45338;-90
2021/11/09 06:20:55;;;;;;;;;52.00;43.25;;;;;7.73;65.98;102319.19;6229984;22;45326;-92
2021/11/09 06:23:21;;;;;;;;;55.50;45.50;;;;;7.62;65.88;102307.47;6229121;22;44880;-93
2021/11/09 06:25:47;;;;;;;;;56.50;44.75;;;;;7.62;65.63;102310.09;6228835;22;46973;-92
2021/11/09 06:28:17;;;;;;;;;56.00;45.00;;;;;7.76;65.98;102344.63;6227534;22;45189;-93
2021/11/09 06:30:53;;;;;;;;;;;;;;;;;;;;;
2021/11/09 06:33:30;;;;;;;;;;;;;;;;;;;;;
2021/11/09 06:35:56;;;;;;;;;57.25;47.75;;;;;7.57;65.67;102324.78;6254425;22;75026;-92
2021/11/09 06:38:25;;;;;;;;;51.50;44.00;;;;;7.63;65.64;102335.44;6228935;22;45319;-91
2021/11/09 06:40:51;;;;;;;;;58.75;47.25;;;;;7.62;65.96;102336.31;6229272;22;45418;-91
2021/11/09 06:43:19;;;;;;;;;58.00;48.00;;;;;7.67;65.81;102346.91;6229880;22;45296;-92
2021/11/09 06:45:46;;;;;;;;;52.50;44.00;;;;;7.45;65.60;102313.84;6229011;22;46759;-93
2021/11/09 06:48:12;;;;;;;;;55.25;45.25;;;;;7.62;65.64;102345.91;6229147;22;45260;-91
2021/11/09 06:51:01;;;;;;;;;;;;;;;;;;;;;
2021/11/09 06:53:29;;;;;;;;;55.00;43.75;;;;;7.49;65.83;102329.75;6255274;22;72058;-93
2021/11/09 06:55:55;;;;;;;;;55.50;44.75;;;;;7.39;65.76;102306.69;6256940;22;46931;-92
2021/11/09 06:58:23;;;;;;;;;57.00;45.25;;;;;7.49;66.29;102326.25;6230703;22;44553;-91
2021/11/09 07:00:49;;;;;;;;;59.75;47.75;;;;;7.61;65.92;102350.22;6230987;22;45133;-92
2021/11/09 07:03:18;;;;;;;;;58.00;46.75;;;;;7.61;66.17;102350.22;6229599;22;45143;-92
2021/11/09 07:05:43;;;;;;;;;55.00;46.00;;;;;7.61;66.53;102344.09;6229772;22;46687;-91
2021/11/09 07:08:09;;;;;;;;;55.75;45.75;;;;;7.44;66.47;102317.31;6230398;22;45726;-93
2021/11/09 07:10:35;;;;;;;;;56.25;46.75;;;;;7.63;66.32;102347.66;6232172;22;45339;-92
2021/11/09 07:13:01;;;;;;;;;55.25;45.00;;;;;7.59;65.97;102337.91;6229556;22;45606;-90
2021/11/09 07:15:26;;;;;;;;;54.75;45.50;;;;;7.58;66.09;102337.03;6230094;22;47503;-94
2021/11/09 07:17:52;;;;;;;;;63.50;48.50;;;;;7.62;66.56;102338.03;6252514;22;45212;-93
2021/11/09 07:20:20;;;;;;;;;62.25;48.25;;;;;7.45;66.62;102317.34;6253134;22;45317;-93
2021/11/09 07:22:48;;;;;;;;;61.75;49.00;;;;;7.70;66.38;102361.03;6226109;22;45389;-93
2021/11/09 07:25:14;;;;;;;;;60.00;49.25;;;;;7.69;66.11;102355.72;6228038;22;47139;-93
2021/11/09 07:27:41;;;;;;;;;57.50;47.25;;;;;7.73;66.14;102358.53;6226364;22;45366;-93
2021/11/09 07:30:10;;;;;;;;;57.50;46.75;;;;;7.60;66.41;102330.09;6227123;22;45192;-92
2021/11/09 07:32:37;;;;;;;;;60.75;47.50;;;;;7.58;66.17;102320.41;6229324;22;45367;-92
2021/11/09 07:35:07;;;;;;;;;60.25;48.00;;;;;7.76;66.31;102356.84;6228936;22;48086;-91
2021/11/09 07:37:33;;;;;;;;;61.00;49.75;;;;;7.72;66.13;102354.13;6228159;22;45686;-92
2021/11/09 07:39:59;;;;;;;;;63.25;51.75;;;;;7.68;65.97;102353.97;6227451;22;45188;-92
2021/11/09 07:42:25;;;;;;;;;60.00;49.00;;;;;7.63;66.05;102345.03;6228418;22;45169;-91
2021/11/09 07:44:53;;;;;;;;;62.25;49.25;;;;;7.73;66.23;102363.75;6231252;22;47136;-92
2021/11/09 07:47:19;;;;;;;;;55.00;46.00;;;;;7.84;66.30;102385.09;6233992;22;44871;-89
2021/11/09 07:49:44;;;;;;;;;64.50;49.75;;;;;7.76;66.38;102369.97;6240232;22;45264;-91
2021/11/09 07:52:11;;;;;;;;;57.00;46.00;;;;;7.85;66.44;102383.38;6237837;22;45510;-89
2021/11/09 07:54:40;;;;;;;;;60.75;49.00;;;;;7.84;66.28;102378.97;6232747;22;46857;-90
2021/11/09 07:57:11;;;;;;;;;60.25;48.75;;;;;7.82;66.42;102381.53;6225044;22;45422;-88
2021/11/09 08:00:09;;;;;;;;;60.25;46.75;;;;;7.83;66.10;102379.78;6255395;22;45108;-92
2021/11/09 08:02:46;;;;;;;;;59.25;48.00;;;;;7.93;66.21;102393.25;6232497;22;45147;-91
2021/11/09 08:05:12;;;;;;;;;59.50;49.00;;;;;7.93;66.51;102389.75;6238277;22;46941;-93
2021/11/09 08:07:53;;;;;;;;;58.25;47.25;;;;;7.83;66.31;102372.84;6238455;22;45414;-94
2021/11/09 08:14:02;;;;;;;;;;;;;;;;;;;;;
2021/11/09 08:17:18;;;;;;;;;;;;;;;;;;;;;
2021/11/09 08:26:03;;;;;;;;;61.00;49.25;;;;;8.21;66.27;102409.94;6254369;22;44857;-93
2021/11/09 08:32:55;;;;;;;;;;;;;;;;;;;;;
2021/11/09 08:35:49;;;;;;;;;;;;;;;;;;;;;
2021/11/09 09:30:07;;;;;;;;;;;;;;;;;;;;;
2021/11/09 18:21:15;;;;;;;;;32.25;29.75;;;;;12.10;47.79;102196.19;6238049;22;45548;-91
2021/11/09 18:23:50;;;;;;;;;35.50;32.00;;;;;11.85;48.45;102169.44;6193766;22;45501;-90
2021/11/09 18:26:36;;;;;;;;;49.75;40.25;;;;;11.86;48.05;102171.22;6181969;22;48046;-88
2021/11/09 18:29:42;;;;;;;;;38.00;33.75;;;;;11.74;48.61;102162.25;6213779;22;45371;-90
2021/11/09 18:32:17;;;;;;;;;53.50;42.50;;;;;11.78;48.43;102177.25;6206048;22;45297;-84
2021/11/09 18:35:40;;;;;;;;;;;;;;;;;;;;;
2021/11/09 18:42:25;;;;;;;;;;;;;;;;;;;;;
2021/11/09 18:45:16;;;;;;;;;57.75;46.75;;;;;11.71;49.36;102205.31;6071010;23;69085;-87
2021/11/09 18:47:46;;;;;;;;;40.25;32.00;;;;;11.54;49.44;102180.41;6035147;23;44884;-86
2021/11/09 18:54:02;;;;;;;;;;;;;;;;;;;;;
2021/11/09 19:00:28;;;;;;;;;63.00;50.75;;;;;11.42;49.70;102197.81;6214038;22;45362;-86
2021/11/09 19:10:14;;;;;;;;;63.25;49.25;;;;;11.36;50.38;102203.00;6185092;22;45317;-87
2021/11/09 19:17:10;;;;;;;;;;;;;;;;;;;;;
2021/11/09 19:19:48;;;;;;;;;;;;;;;;;;;;;
2021/11/09 19:54:33;;;;;;;;;43.25;37.50;;;;;10.97;52.71;102192.63;5774621;24;45623;-88
2021/11/09 20:03:45;;;;;;;;;35.00;34.75;;;;;10.94;53.05;102209.28;5934863;23;45894;-84
2021/11/09 20:24:06;;;;;;;;;46.75;40.00;;;;;10.76;53.87;102216.84;6165204;22;45944;-87
2021/11/09 20:30:11;;;;;;;;;45.25;38.50;;;;;10.54;54.00;102186.56;6189592;22;45524;-86
2021/11/09 20:32:50;;;;;;;;;54.25;44.50;;;;;10.49;54.20;102180.31;6182056;22;45969;-87
2021/11/09 20:35:20;;;;;;;;;57.75;46.25;;;;;10.49;54.47;102189.09;6183724;22;47089;-88
2021/11/09 20:37:48;;;;;;;;;56.50;45.75;;;;;10.41;54.50;102176.66;6185207;22;45420;-88
2021/11/09 20:40:15;;;;;;;;;59.75;49.00;;;;;10.57;54.29;102220.84;6184471;22;45478;-87
2021/11/09 20:42:42;;;;;;;;;61.00;49.75;;;;;10.46;54.55;102199.56;6184196;22;45403;-87
2021/11/09 20:45:10;;;;;;;;;63.50;48.50;;;;;10.37;54.15;102178.31;6212333;22;46221;-89
2021/11/09 20:47:36;;;;;;;;;64.25;52.25;;;;;10.38;54.84;102188.88;6184768;22;45825;-86
2021/11/09 20:50:02;;;;;;;;;60.50;50.50;;;;;10.41;54.71;102203.84;6212058;22;45646;-87
2021/11/09 20:52:28;;;;;;;;;60.00;49.00;;;;;10.29;54.68;102196.59;6212316;22;45479;-87
2021/11/09 20:54:53;;;;;;;;;62.50;50.50;;;;;10.25;55.20;102210.50;6184927;22;47013;-88
2021/11/09 20:57:26;;;;;;;;;67.00;53.25;;;;;10.36;55.09;102213.41;6212021;22;45535;-88
2021/11/09 20:59:53;;;;;;;;;56.75;45.25;;;;;10.32;55.15;102203.69;6183645;22;45471;-86
2021/11/09 21:02:30;;;;;;;;;56.50;46.25;;;;;10.21;55.51;102187.63;6211045;22;45912;-87
2021/11/09 21:04:55;;;;;;;;;60.50;46.25;;;;;10.23;55.61;102206.06;6185506;22;47416;-87
2021/11/09 21:07:21;;;;;;;;;59.25;50.50;;;;;10.15;55.29;102198.00;6238960;22;45412;-90
2021/11/09 21:09:46;;;;;;;;;61.00;50.75;;;;;10.19;55.84;102207.75;6191043;22;45427;-91
2021/11/09 21:12:18;;;;;;;;;73.50;56.50;;;;;10.16;55.83;102208.56;6188166;22;45572;-91
2021/11/09 21:20:21;;;;;;;;;74.00;59.50;;;;;9.98;56.24;102173.97;6221181;22;45356;-92
2021/11/09 21:23:09;;;;;;;;;69.00;54.25;;;;;10.06;56.20;102197.81;6192605;22;45846;-89
2021/11/09 21:26:32;;;;;;;;;;;;;;;;;;;;;
2021/11/09 21:29:33;;;;;;;;;75.25;58.50;;;;;9.89;56.58;102179.94;6071589;22;73074;-93
2021/11/09 21:37:45;;;;;;;;;72.75;56.75;;;;;9.74;56.89;102179.56;6223792;22;45672;-87
2021/11/09 21:40:16;;;;;;;;;67.50;54.75;;;;;9.71;56.92;102183.03;6182979;22;45606;-87
2021/11/09 21:42:43;;;;;;;;;76.25;59.50;;;;;9.86;57.03;102203.53;6209973;22;45603;-87
2021/11/09 21:45:10;;;;;;;;;69.25;54.50;;;;;9.81;57.03;102205.16;6235753;22;45740;-89
2021/11/09 21:47:44;;;;;;;;;69.00;54.50;;;;;9.62;57.10;102167.03;6212932;22;45657;-86
2021/11/09 21:50:11;;;;;;;;;66.50;52.50;;;;;9.62;57.10;102172.31;6185013;22;45447;-86
2021/11/09 21:52:38;;;;;;;;;70.75;56.00;;;;;9.79;57.29;102205.97;6210247;22;45686;-86
2021/11/09 21:55:05;;;;;;;;;72.25;55.50;;;;;9.71;57.45;102198.78;6186327;22;45522;-87
2021/11/09 21:57:31;;;;;;;;;69.00;55.50;;;;;9.58;57.24;102193.22;6186523;22;46874;-87
2021/11/09 21:59:57;;;;;;;;;68.75;53.25;;;;;9.71;57.37;102211.94;6187702;22;45955;-87
2021/11/09 22:02:23;;;;;;;;;63.25;51.25;;;;;9.61;57.32;102191.53;6185720;22;45384;-88
2021/11/09 22:04:48;;;;;;;;;66.75;52.00;;;;;9.69;57.62;102200.50;6186990;22;45446;-87
2021/11/09 22:07:16;;;;;;;;;58.50;47.00;;;;;9.48;57.48;102176.31;6186792;22;46444;-87
2021/11/09 22:09:42;;;;;;;;;58.25;46.75;;;;;9.58;57.56;102207.25;6187662;22;45716;-87
2021/11/09 22:12:08;;;;;;;;;56.25;46.50;;;;;9.54;57.47;102205.38;6189511;22;45350;-87
2021/11/09 22:14:36;;;;;;;;;58.00;46.00;;;;;9.56;57.81;102218.56;6189133;22;45330;-88
2021/11/09 22:17:02;;;;;;;;;60.00;47.25;;;;;9.36;57.74;102176.03;6237263;22;46118;-86
2021/11/09 22:19:31;;;;;;;;;56.00;45.50;;;;;9.53;57.91;102206.25;6213571;22;45537;-86
2021/11/09 22:21:57;;;;;;;;;51.75;43.00;;;;;9.37;57.96;102186.59;6238516;22;45797;-87
2021/11/09 22:24:22;;;;;;;;;53.00;43.75;;;;;9.37;57.79;102183.06;6191925;22;45426;-87
2021/11/09 22:26:49;;;;;;;;;58.50;46.00;;;;;9.31;58.09;102191.69;6239449;22;47057;-87
2021/11/09 22:29:15;;;;;;;;;62.25;51.25;;;;;9.19;58.41;102168.59;6186488;22;45478;-88
2021/11/09 22:31:41;;;;;;;;;63.50;50.50;;;;;9.18;58.44;102166.84;6185615;22;45855;-86
2021/11/09 22:34:07;;;;;;;;;63.75;50.50;;;;;9.17;58.63;102179.97;6186640;22;45880;-87
2021/11/09 22:36:32;;;;;;;;;67.75;54.75;;;;;9.07;58.50;102176.19;6185839;22;47396;-87
2021/11/09 22:38:58;;;;;;;;;63.25;52.25;;;;;9.03;58.80;102175.25;6214210;22;45325;-87
2021/11/09 22:41:24;;;;;;;;;61.00;51.25;;;;;9.03;58.68;102172.63;6213544;22;45637;-87
2021/11/09 22:43:49;;;;;;;;;66.50;53.50;;;;;9.00;58.63;102164.63;6186849;22;45434;-86
2021/11/09 22:46:23;;;;;;;;;69.25;55.00;;;;;9.13;58.85;102184.22;6185235;22;46755;-88
2021/11/09 22:48:49;;;;;;;;;69.00;53.75;;;;;9.11;58.80;102199.06;6214001;22;45677;-85
2021/11/09 22:51:16;;;;;;;;;64.50;53.00;;;;;9.02;58.92;102183.94;6185841;22;45706;-86
2021/11/09 22:53:42;;;;;;;;;69.50;54.50;;;;;8.89;59.03;102163.47;6186652;22;45349;-88
2021/11/09 22:56:10;;;;;;;;;70.50;54.75;;;;;8.93;58.83;102177.59;6234533;22;47828;-89
2021/11/09 22:58:37;;;;;;;;;67.75;55.00;;;;;8.88;58.97;102164.34;6190059;22;45444;-89
2021/11/09 23:01:03;;;;;;;;;68.50;54.00;;;;;8.92;58.94;102171.44;6190098;22;45408;-89
2021/11/09 23:03:29;;;;;;;;;72.50;56.00;;;;;8.81;59.14;102154.50;6239732;22;45481;-90
2021/11/09 23:05:55;;;;;;;;;74.25;57.50;;;;;8.92;58.82;102179.31;6188280;22;46849;-87
2021/11/09 23:08:20;;;;;;;;;73.25;57.25;;;;;8.83;58.99;102161.56;6239361;22;45636;-89
2021/11/09 23:10:46;;;;;;;;;70.00;55.75;;;;;8.74;58.90;102155.19;6189857;22;45390;-89
2021/11/09 23:13:12;;;;;;;;;73.25;58.00;;;;;8.79;59.25;102169.31;6188987;22;45669;-89
2021/11/09 23:15:37;;;;;;;;;74.00;57.00;;;;;8.82;59.21;102179.91;6238744;22;46832;-89
2021/11/09 23:18:03;;;;;;;;;71.00;55.75;;;;;8.75;59.43;102164.84;6189918;22;45282;-89
2021/11/09 23:20:29;;;;;;;;;68.75;55.25;;;;;8.78;59.54;102180.69;6190042;22;45599;-89
2021/11/09 23:22:55;;;;;;;;;64.50;51.75;;;;;8.65;59.35;102161.09;6240201;22;45778;-89
2021/11/09 23:25:23;;;;;;;;;57.25;48.00;;;;;8.69;59.83;102176.09;6239330;22;47328;-89
2021/11/09 23:27:53;;;;;;;;;62.50;51.50;;;;;8.66;59.58;102183.88;6217108;22;45463;-88
2021/11/09 23:30:23;;;;;;;;;51.50;42.50;;;;;8.69;59.59;102177.81;6190404;22;45536;-89
2021/11/09 23:32:50;;;;;;;;;63.00;52.25;;;;;8.69;59.67;102191.84;6239092;22;45902;-88
2021/11/09 23:35:16;;;;;;;;;64.75;51.25;;;;;8.64;59.49;102185.56;6215167;22;46163;-89
2021/11/09 23:37:43;;;;;;;;;66.00;54.00;;;;;8.60;59.65;102178.44;6212859;22;45441;-89
2021/11/09 23:40:10;;;;;;;;;66.25;54.25;;;;;8.57;59.78;102170.50;6187209;22;45955;-88
2021/11/09 23:42:36;;;;;;;;;66.00;53.00;;;;;8.65;59.72;102187.34;6187349;22;46005;-88
2021/11/09 23:45:02;;;;;;;;;65.25;52.00;;;;;8.61;59.66;102172.38;6213863;22;45466;-89
2021/11/09 23:47:29;;;;;;;;;65.75;52.50;;;;;8.58;60.30;102162.66;6213425;22;45427;-88
2021/11/09 23:49:54;;;;;;;;;63.00;52.00;;;;;8.54;60.10;102162.53;6184993;22;45505;-89
2021/11/09 23:52:20;;;;;;;;;64.50;52.25;;;;;8.63;60.16;102182.88;6212838;22;45337;-88
2021/11/09 23:54:46;;;;;;;;;64.25;52.00;;;;;8.47;60.20;102165.81;6235222;22;47897;-89
2021/11/09 23:57:11;;;;;;;;;61.50;52.25;;;;;8.38;60.31;102161.19;6183953;22;45921;-88
2021/11/09 23:59:37;;;;;;;;;60.00;49.25;;;;;8.51;60.32;102196.56;6185506;22;45598;-86
